Terminal Aerodrome Forecast
Issued by NWS Wilmington, NC

Home | Current Version | Previous Version | Text Only | Print | Product List | Glossary On
Versions: 1 2 3 4 5 6 7 8 9 10 11 12 13
000
FTUS42 KILM 291100
TAFMYR
TAF
KMYR 291120Z 2912/3012 VRB04KT P6SM SCT250
     FM291600 17008KT P6SM SCT250
     FM300100 21005KT P6SM OVC100
     FM300800 24007KT P6SM -SHRA BKN050=

USA.gov is the U.S. government's official web portal to all federal, state and local government web resources and services.